createdAt,value
2023-03-29T00:00:29.576Z,90.30
2023-03-29T00:02:56.672Z,90.30
2023-03-29T00:05:25.427Z,90.30
2023-03-29T00:08:01.956Z,90.20
2023-03-29T00:10:28.876Z,90.20
2023-03-29T00:12:55.782Z,90.20
2023-03-29T00:15:22.617Z,90.10
2023-03-29T00:17:49.841Z,90.10
2023-03-29T00:20:18.015Z,90.10
2023-03-29T00:22:47.101Z,90.10
2023-03-29T00:25:14.357Z,90.00
2023-03-29T00:27:41.479Z,90.00
2023-03-29T00:30:10.286Z,90.00
2023-03-29T00:32:38.213Z,90.00
2023-03-29T00:35:06.380Z,90.00
2023-03-29T00:37:33.854Z,89.80
2023-03-29T00:40:01.001Z,89.90
2023-03-29T00:42:27.804Z,89.80
2023-03-29T00:45:19.123Z,89.60
2023-03-29T00:47:51.281Z,89.70
2023-03-29T00:50:22.396Z,89.60
2023-03-29T00:52:57.338Z,89.60
2023-03-29T00:55:27.696Z,89.60
2023-03-29T00:57:57.706Z,89.70
2023-03-29T01:00:31.849Z,89.80
2023-03-29T01:03:02.236Z,89.60
2023-03-29T01:05:40.628Z,89.40
2023-03-29T01:08:18.394Z,89.30
2023-03-29T01:10:57.375Z,89.20
2023-03-29T01:13:34.185Z,89.00
2023-03-29T01:16:03.391Z,89.00
2023-03-29T01:18:31.441Z,88.80
2023-03-29T01:21:22.350Z,88.60
2023-03-29T01:24:07.366Z,88.40
2023-03-29T01:26:45.588Z,88.40
2023-03-29T01:29:31.455Z,88.00
2023-03-29T01:32:27.689Z,88.00
2023-03-29T01:35:02.819Z,87.80
2023-03-29T01:37:36.930Z,87.60
2023-03-29T01:40:06.164Z,87.50
2023-03-29T01:42:44.829Z,87.40
2023-03-29T01:45:36.192Z,87.40
2023-03-29T01:48:12.042Z,87.50
2023-03-29T01:50:52.206Z,87.40
2023-03-29T01:53:59.974Z,87.30
2023-03-29T01:56:29.191Z,87.50
2023-03-29T01:59:03.958Z,87.40
2023-03-29T02:01:40.311Z,87.40
2023-03-29T02:04:13.297Z,87.40
2023-03-29T02:06:41.701Z,87.40
2023-03-29T02:09:09.113Z,87.30
2023-03-29T02:11:36.966Z,87.40
2023-03-29T02:14:03.937Z,87.40
2023-03-29T02:16:39.136Z,87.50
2023-03-29T02:19:07.881Z,87.70
2023-03-29T02:21:48.366Z,87.70
2023-03-29T02:24:18.087Z,87.60
2023-03-29T02:26:45.121Z,87.70
2023-03-29T02:29:12.524Z,87.70
2023-03-29T02:31:49.877Z,87.90
2023-03-29T02:34:30.903Z,88.50
2023-03-29T02:37:06.936Z,87.90
2023-03-29T02:39:35.883Z,87.90
2023-03-29T02:42:04.282Z,88.10
2023-03-29T02:44:36.462Z,88.20
2023-03-29T02:47:13.545Z,88.40
2023-03-29T02:49:40.701Z,88.70
2023-03-29T02:52:16.380Z,88.90
2023-03-29T02:54:45.908Z,88.90
2023-03-29T02:57:13.442Z,89.00
2023-03-29T02:59:43.925Z,89.00
2023-03-29T03:02:11.862Z,89.10
2023-03-29T03:04:38.809Z,89.10
2023-03-29T03:07:05.724Z,89.20
2023-03-29T03:09:33.728Z,89.20
2023-03-29T03:12:00.539Z,89.20
2023-03-29T03:14:28.390Z,89.50
2023-03-29T03:16:55.313Z,89.30
2023-03-29T03:19:22.651Z,89.40
2023-03-29T03:21:49.742Z,89.30
2023-03-29T03:24:17.918Z,89.40
2023-03-29T03:26:46.388Z,89.40
2023-03-29T03:29:14.371Z,89.30
2023-03-29T03:31:41.507Z,89.10
2023-03-29T03:34:11.475Z,89.00
2023-03-29T03:36:38.332Z,89.00
2023-03-29T03:39:07.262Z,89.10
2023-03-29T03:41:34.718Z,89.20
2023-03-29T03:44:01.840Z,89.20
2023-03-29T03:46:29.798Z,89.20
2023-03-29T03:48:58.065Z,89.30
2023-03-29T03:51:25.463Z,89.50
2023-03-29T03:53:52.351Z,89.60
2023-03-29T03:56:20.515Z,89.70
2023-03-29T03:58:47.780Z,89.60
2023-03-29T04:01:14.681Z,89.60
2023-03-29T04:03:41.796Z,89.60
2023-03-29T04:06:09.848Z,89.60
2023-03-29T04:08:40.613Z,89.50
2023-03-29T04:11:08.491Z,89.40
2023-03-29T04:13:38.241Z,89.40
2023-03-29T04:16:07.189Z,89.40
2023-03-29T04:18:34.197Z,89.40
2023-03-29T04:21:01.460Z,89.30
2023-03-29T04:23:28.651Z,89.30
2023-03-29T04:25:56.739Z,89.20
2023-03-29T04:28:23.709Z,89.20
2023-03-29T04:30:50.834Z,89.40
2023-03-29T04:33:17.767Z,89.60
2023-03-29T04:35:44.876Z,89.60
2023-03-29T04:38:11.891Z,89.70
2023-03-29T04:40:38.771Z,89.60
2023-03-29T04:43:06.367Z,89.60
2023-03-29T04:45:33.250Z,89.50
2023-03-29T04:48:00.218Z,89.50
2023-03-29T04:50:27.407Z,89.60
2023-03-29T04:52:54.159Z,89.50
2023-03-29T04:55:23.460Z,89.50
2023-03-29T04:57:50.275Z,89.50
2023-03-29T05:00:17.552Z,89.60
2023-03-29T05:02:45.632Z,89.70
2023-03-29T05:05:13.990Z,89.70
2023-03-29T05:07:41.052Z,89.60
2023-03-29T05:10:09.311Z,89.70
2023-03-29T05:12:36.916Z,89.50
2023-03-29T05:15:05.231Z,89.60
2023-03-29T05:17:32.662Z,89.70
2023-03-29T05:19:59.516Z,89.90
2023-03-29T05:22:26.388Z,89.80
2023-03-29T05:24:53.394Z,89.80
2023-03-29T05:27:22.822Z,89.80
2023-03-29T05:29:49.678Z,89.90
2023-03-29T05:32:18.923Z,89.90
2023-03-29T05:34:45.906Z,89.80
2023-03-29T05:37:13.391Z,89.80
2023-03-29T05:39:40.285Z,89.90
2023-03-29T05:42:07.259Z,89.90
2023-03-29T05:44:34.374Z,89.80
2023-03-29T05:47:01.470Z,89.80
2023-03-29T05:49:28.314Z,89.90
2023-03-29T05:51:56.915Z,89.90
2023-03-29T05:54:25.018Z,89.90
2023-03-29T05:56:52.218Z,89.90
2023-03-29T05:59:20.537Z,89.90
2023-03-29T06:01:47.491Z,89.80
2023-03-29T06:04:15.388Z,90.10
2023-03-29T06:06:43.874Z,89.60
2023-03-29T06:09:10.845Z,89.60
2023-03-29T06:11:37.856Z,89.60
2023-03-29T06:14:04.763Z,89.60
2023-03-29T06:16:32.621Z,89.50
2023-03-29T06:18:59.621Z,89.50
2023-03-29T06:21:28.214Z,89.50
2023-03-29T06:23:55.451Z,89.40
2023-03-29T06:26:23.767Z,89.40
2023-03-29T06:28:52.436Z,89.50
2023-03-29T06:31:20.061Z,89.60
2023-03-29T06:33:47.393Z,89.60
2023-03-29T06:36:16.225Z,89.50
2023-03-29T06:38:45.441Z,89.10
2023-03-29T06:41:12.213Z,88.90
2023-03-29T06:43:39.491Z,88.80
2023-03-29T06:46:11.940Z,88.90
2023-03-29T06:48:40.245Z,89.00
2023-03-29T06:51:07.761Z,89.00
2023-03-29T06:53:35.617Z,88.90
2023-03-29T06:56:09.398Z,88.80
2023-03-29T06:58:37.068Z,88.60
2023-03-29T07:01:05.096Z,88.60
2023-03-29T07:03:34.979Z,88.20
2023-03-29T07:06:09.723Z,88.90
2023-03-29T07:08:43.464Z,86.30
2023-03-29T07:11:14.818Z,85.70
2023-03-29T07:13:42.743Z,86.10
2023-03-29T07:16:12.904Z,86.60
2023-03-29T07:18:44.227Z,87.00
2023-03-29T07:21:13.485Z,87.20
2023-03-29T07:23:40.920Z,87.60
2023-03-29T07:26:08.643Z,87.60
2023-03-29T07:28:39.511Z,87.80
2023-03-29T07:31:11.387Z,87.70
2023-03-29T07:33:39.434Z,87.80
2023-03-29T07:36:07.409Z,87.70
2023-03-29T07:38:34.377Z,87.70
2023-03-29T07:41:06.880Z,88.10
2023-03-29T07:43:34.467Z,88.20
2023-03-29T07:46:03.050Z,88.30
2023-03-29T07:48:30.174Z,88.00
2023-03-29T07:50:57.302Z,88.10
2023-03-29T07:53:24.592Z,87.90
2023-03-29T07:55:54.494Z,87.90
2023-03-29T07:58:22.752Z,88.00
2023-03-29T08:00:56.727Z,88.10
2023-03-29T08:03:23.685Z,88.00
2023-03-29T08:05:50.596Z,87.90
2023-03-29T08:08:17.524Z,87.50
2023-03-29T08:10:44.607Z,87.60
2023-03-29T08:13:11.861Z,87.70
2023-03-29T08:15:40.083Z,87.50
2023-03-29T08:18:08.132Z,87.50
2023-03-29T08:20:35.272Z,87.80
2023-03-29T08:23:02.294Z,87.40
2023-03-29T08:25:29.468Z,87.20
2023-03-29T08:27:56.471Z,87.20
2023-03-29T08:30:23.383Z,87.20
2023-03-29T08:32:52.944Z,86.90
2023-03-29T08:35:22.824Z,87.00
2023-03-29T08:37:49.726Z,86.60
2023-03-29T08:40:21.759Z,86.50
2023-03-29T08:42:58.567Z,86.40
2023-03-29T08:45:35.534Z,86.40
2023-03-29T08:48:14.407Z,86.30
2023-03-29T08:50:48.077Z,85.60
2023-03-29T08:53:30.271Z,85.50
2023-03-29T08:55:59.808Z,85.60
2023-03-29T08:58:31.564Z,85.70
2023-03-29T09:01:01.099Z,85.50
2023-03-29T09:03:35.674Z,85.10
2023-03-29T09:06:08.873Z,85.50
2023-03-29T09:08:42.547Z,85.50
2023-03-29T09:11:26.231Z,85.70
2023-03-29T09:14:14.231Z,85.70
2023-03-29T09:16:57.393Z,85.70
2023-03-29T09:20:00.887Z,85.80
2023-03-29T09:22:44.294Z,85.50
2023-03-29T09:25:26.074Z,85.40
2023-03-29T09:28:23.592Z,85.00
2023-03-29T09:31:14.831Z,84.60
2023-03-29T09:33:47.881Z,84.50
2023-03-29T09:36:26.017Z,84.20
2023-03-29T09:38:55.533Z,84.10
2023-03-29T09:41:58.090Z,84.00
2023-03-29T09:44:36.220Z,83.70
2023-03-29T09:47:09.176Z,84.10
2023-03-29T09:49:42.541Z,83.60
2023-03-29T09:52:14.173Z,83.80
2023-03-29T09:54:41.381Z,84.10
2023-03-29T09:57:13.503Z,84.20
2023-03-29T09:59:41.185Z,84.50
2023-03-29T10:02:11.913Z,84.70
2023-03-29T10:04:40.045Z,84.90
2023-03-29T10:09:44.755Z,85.10
2023-03-29T10:12:13.302Z,84.30
2023-03-29T10:14:48.190Z,83.90
2023-03-29T10:17:29.620Z,83.60
2023-03-29T10:20:00.927Z,83.90
2023-03-29T10:22:37.763Z,84.20
2023-03-29T10:25:09.523Z,84.40
2023-03-29T10:27:36.639Z,84.50
2023-03-29T10:30:14.303Z,84.70
2023-03-29T10:32:41.467Z,84.60
2023-03-29T10:35:10.861Z,84.10
2023-03-29T10:37:43.412Z,84.40
2023-03-29T10:40:27.523Z,84.30
2023-03-29T10:42:59.913Z,84.10
2023-03-29T10:45:34.787Z,83.80
2023-03-29T10:48:06.903Z,83.40
2023-03-29T10:50:35.916Z,82.30
2023-03-29T10:53:04.204Z,81.50
2023-03-29T10:55:58.868Z,81.40
2023-03-29T10:58:51.783Z,81.00
2023-03-29T11:01:43.593Z,80.70
2023-03-29T11:04:13.214Z,80.80
2023-03-29T11:06:47.633Z,80.50
2023-03-29T11:09:42.170Z,79.30
2023-03-29T11:12:16.141Z,78.10
2023-03-29T11:15:08.074Z,78.40
2023-03-29T11:17:50.914Z,79.80
2023-03-29T11:20:48.764Z,80.30
2023-03-29T11:23:43.400Z,80.40
2023-03-29T11:26:49.764Z,80.50
2023-03-29T11:29:22.904Z,81.80
2023-03-29T11:32:08.993Z,82.30
2023-03-29T11:35:10.862Z,83.50
2023-03-29T11:37:51.233Z,83.70
2023-03-29T11:40:41.072Z,83.80
2023-03-29T11:43:15.929Z,84.10
2023-03-29T11:45:52.500Z,83.90
2023-03-29T11:48:25.122Z,83.80
2023-03-29T11:51:18.694Z,83.60
2023-03-29T11:54:01.547Z,83.40
2023-03-29T11:56:40.236Z,83.20
2023-03-29T11:59:16.079Z,83.40
2023-03-29T12:01:49.052Z,83.50
2023-03-29T12:04:27.689Z,83.40
2023-03-29T12:07:02.658Z,83.20
2023-03-29T12:09:44.878Z,83.50
2023-03-29T12:12:30.696Z,84.20
2023-03-29T12:15:26.776Z,84.20
2023-03-29T12:18:08.924Z,83.70
2023-03-29T12:20:40.468Z,84.20
2023-03-29T12:23:08.595Z,84.50
2023-03-29T12:25:48.744Z,84.20
2023-03-29T12:28:23.350Z,84.20
2023-03-29T12:30:59.181Z,84.60
2023-03-29T12:33:54.647Z,85.10
2023-03-29T12:37:06.514Z,85.80
2023-03-29T12:39:33.576Z,86.50
2023-03-29T12:42:15.986Z,86.70
2023-03-29T12:44:51.232Z,86.90
2023-03-29T12:47:23.445Z,87.70
2023-03-29T12:49:56.588Z,88.30
2023-03-29T12:52:27.129Z,88.80
2023-03-29T12:54:58.491Z,89.30
2023-03-29T12:57:33.781Z,89.50
2023-03-29T13:00:22.140Z,89.70
2023-03-29T13:03:20.091Z,89.80
2023-03-29T13:05:47.661Z,90.00
2023-03-29T13:08:42.245Z,90.00
2023-03-29T13:11:48.690Z,89.30
2023-03-29T13:14:19.366Z,88.90
2023-03-29T13:16:47.802Z,88.60
2023-03-29T13:19:33.335Z,88.10
2023-03-29T13:22:03.033Z,87.80
2023-03-29T13:24:46.742Z,87.10
2023-03-29T13:27:22.405Z,86.80
2023-03-29T13:30:20.140Z,86.90
2023-03-29T13:33:42.678Z,86.70
2023-03-29T13:36:40.612Z,86.30
2023-03-29T13:39:14.927Z,86.40
2023-03-29T13:41:41.880Z,85.70
2023-03-29T13:44:25.592Z,85.70
2023-03-29T13:47:18.797Z,85.90
2023-03-29T13:49:53.836Z,85.90
2023-03-29T13:52:40.270Z,86.10
2023-03-29T13:58:01.953Z,86.30
2023-03-29T14:00:36.862Z,85.80
2023-03-29T14:03:12.170Z,85.40
2023-03-29T14:05:44.126Z,85.00
2023-03-29T14:08:20.939Z,84.40
2023-03-29T14:10:49.677Z,83.40
2023-03-29T14:13:23.040Z,83.10
2023-03-29T14:16:02.733Z,82.80
2023-03-29T14:18:44.667Z,82.40
2023-03-29T14:21:13.944Z,82.00
2023-03-29T14:23:46.616Z,82.20
2023-03-29T14:26:20.654Z,82.20
2023-03-29T14:28:51.033Z,82.60
2023-03-29T14:31:30.540Z,82.70
2023-03-29T14:34:02.766Z,83.00
2023-03-29T14:36:32.456Z,83.20
2023-03-29T14:39:13.039Z,82.80
2023-03-29T14:41:42.614Z,81.90
2023-03-29T14:44:09.582Z,81.60
2023-03-29T14:46:37.063Z,80.90
2023-03-29T14:49:06.321Z,80.60
2023-03-29T14:51:34.293Z,80.00
2023-03-29T14:54:04.158Z,79.60
2023-03-29T14:56:33.127Z,78.80
2023-03-29T14:59:02.613Z,78.30
2023-03-29T15:01:29.742Z,78.10
2023-03-29T15:04:08.066Z,78.00
2023-03-29T15:06:44.137Z,78.00
2023-03-29T15:09:32.602Z,78.00
2023-03-29T15:12:00.705Z,77.60
2023-03-29T15:14:37.064Z,77.70
2023-03-29T15:17:46.928Z,77.50
2023-03-29T15:20:23.296Z,77.10
2023-03-29T15:22:58.090Z,77.10
2023-03-29T15:25:28.608Z,76.70
2023-03-29T15:27:59.039Z,76.80
2023-03-29T15:30:38.347Z,76.90
2023-03-29T15:33:23.025Z,76.70
2023-03-29T15:35:52.858Z,76.80
2023-03-29T15:38:23.393Z,76.60
2023-03-29T15:40:54.563Z,76.80
2023-03-29T15:43:22.485Z,77.30
2023-03-29T15:45:49.724Z,77.60
2023-03-29T15:48:23.607Z,78.10
2023-03-29T15:50:50.673Z,78.20
2023-03-29T15:53:18.573Z,78.20
2023-03-29T15:55:48.803Z,78.40
2023-03-29T15:58:19.171Z,78.50
2023-03-29T16:00:55.600Z,78.80
2023-03-29T16:03:22.543Z,78.70
2023-03-29T16:05:49.629Z,78.70
2023-03-29T16:08:16.445Z,78.60
2023-03-29T16:10:44.351Z,78.70
2023-03-29T16:13:14.693Z,79.00
2023-03-29T16:15:42.957Z,79.20
2023-03-29T16:18:10.111Z,79.40
2023-03-29T16:20:38.293Z,79.60
2023-03-29T16:23:11.556Z,79.80
2023-03-29T16:25:40.275Z,80.00
2023-03-29T16:28:09.115Z,80.20
2023-03-29T16:30:37.499Z,80.20
2023-03-29T16:33:11.266Z,80.20
2023-03-29T16:35:41.272Z,80.40
2023-03-29T16:38:09.956Z,80.50
2023-03-29T16:40:37.828Z,80.60
2023-03-29T16:45:42.032Z,81.20
2023-03-29T16:48:21.344Z,81.60
2023-03-29T16:50:51.318Z,82.00
2023-03-29T16:53:18.908Z,82.20
2023-03-29T16:55:49.024Z,82.40
2023-03-29T16:58:17.215Z,82.70
2023-03-29T17:00:47.844Z,83.00
2023-03-29T17:03:17.522Z,83.40
2023-03-29T17:05:54.569Z,83.60
2023-03-29T17:08:22.277Z,83.60
2023-03-29T17:10:54.229Z,83.80
2023-03-29T17:13:22.213Z,84.20
2023-03-29T17:15:57.686Z,84.40
2023-03-29T17:18:26.743Z,84.70
2023-03-29T17:20:58.662Z,84.90
2023-03-29T17:23:27.781Z,85.20
2023-03-29T17:25:55.911Z,85.40
2023-03-29T17:28:29.219Z,85.40
2023-03-29T17:31:01.505Z,85.60
2023-03-29T17:33:29.810Z,85.90
2023-03-29T17:35:57.807Z,86.10
2023-03-29T17:38:26.243Z,86.50
2023-03-29T17:40:54.498Z,86.80
2023-03-29T17:43:23.850Z,87.10
2023-03-29T17:45:52.618Z,87.30
2023-03-29T17:48:20.003Z,87.50
2023-03-29T17:50:47.292Z,87.70
2023-03-29T17:53:15.099Z,87.80
2023-03-29T17:55:42.648Z,87.90
2023-03-29T17:58:09.479Z,88.10
2023-03-29T18:00:40.107Z,88.30
2023-03-29T18:03:10.006Z,88.50
2023-03-29T18:05:38.500Z,88.60
2023-03-29T18:08:05.416Z,89.40
2023-03-29T18:10:35.224Z,89.10
2023-03-29T18:13:03.864Z,89.50
2023-03-29T18:15:30.990Z,89.80
2023-03-29T18:18:00.050Z,90.00
2023-03-29T18:20:27.041Z,90.10
2023-03-29T18:22:53.921Z,90.30
2023-03-29T18:25:22.558Z,90.50
2023-03-29T18:27:50.115Z,90.70
2023-03-29T18:30:18.714Z,90.70
2023-03-29T18:32:46.074Z,90.90
2023-03-29T18:35:12.970Z,91.00
2023-03-29T18:37:44.369Z,91.10
2023-03-29T18:40:11.269Z,91.30
2023-03-29T18:42:38.262Z,91.40
2023-03-29T18:45:05.644Z,91.20
2023-03-29T18:47:37.341Z,91.40
2023-03-29T18:50:05.291Z,91.50
2023-03-29T18:52:43.627Z,91.70
2023-03-29T18:55:11.117Z,91.90
2023-03-29T18:57:38.510Z,92.20
2023-03-29T19:00:14.065Z,92.10
2023-03-29T19:02:42.424Z,92.20
2023-03-29T19:05:11.193Z,92.40
2023-03-29T19:07:38.421Z,92.60
2023-03-29T19:10:09.843Z,92.80
2023-03-29T19:12:37.055Z,92.90
2023-03-29T19:15:04.754Z,93.00
2023-03-29T19:17:31.695Z,92.90
2023-03-29T19:19:59.310Z,93.20
2023-03-29T19:22:27.264Z,93.40
2023-03-29T19:24:55.232Z,93.60
2023-03-29T19:27:24.600Z,93.70
2023-03-29T19:29:52.624Z,93.80
2023-03-29T19:32:20.239Z,94.00
2023-03-29T19:34:48.172Z,94.10
2023-03-29T19:37:16.969Z,94.20
2023-03-29T19:39:44.667Z,94.50
2023-03-29T19:42:13.948Z,94.60
2023-03-29T19:44:40.764Z,94.70
2023-03-29T19:47:07.848Z,94.90
2023-03-29T19:49:37.924Z,95.10
2023-03-29T19:52:05.811Z,95.30
2023-03-29T19:54:33.160Z,95.60
2023-03-29T19:57:00.870Z,95.70
2023-03-29T19:59:28.202Z,95.90
2023-03-29T20:01:56.808Z,96.10
2023-03-29T20:04:24.691Z,96.30
2023-03-29T20:06:52.669Z,96.50
2023-03-29T20:09:19.534Z,96.70
2023-03-29T20:11:49.080Z,96.90
2023-03-29T20:14:16.733Z,97.10
2023-03-29T20:16:45.716Z,97.40
2023-03-29T20:19:14.306Z,97.60
2023-03-29T20:21:41.298Z,97.90
2023-03-29T20:24:08.879Z,98.10
2023-03-29T20:26:35.973Z,98.30
2023-03-29T20:29:02.989Z,98.80
2023-03-29T20:31:30.079Z,98.70
2023-03-29T20:33:57.665Z,98.80
2023-03-29T20:36:26.768Z,98.90
2023-03-29T20:38:56.429Z,99.00
2023-03-29T20:41:23.238Z,99.20
2023-03-29T20:43:58.396Z,99.30
2023-03-29T20:46:33.190Z,99.30
2023-03-29T20:49:06.035Z,99.40
2023-03-29T20:51:33.224Z,99.30
2023-03-29T20:54:04.994Z,99.20
2023-03-29T20:56:42.506Z,99.20
2023-03-29T20:59:12.449Z,99.10
2023-03-29T21:01:40.773Z,99.00
2023-03-29T21:04:09.124Z,99.10
2023-03-29T21:06:36.544Z,99.00
2023-03-29T21:09:04.835Z,99.10
2023-03-29T21:11:32.061Z,99.30
2023-03-29T21:13:59.172Z,99.40
2023-03-29T21:16:26.003Z,99.50
2023-03-29T21:18:53.407Z,99.60
2023-03-29T21:21:22.621Z,99.60
2023-03-29T21:23:49.525Z,99.60
2023-03-29T21:26:16.512Z,99.60
2023-03-29T21:28:43.366Z,99.60
2023-03-29T21:31:10.669Z,99.60
2023-03-29T21:33:37.559Z,99.70
2023-03-29T21:36:04.915Z,99.70
2023-03-29T21:38:31.862Z,99.70
2023-03-29T21:41:00.254Z,99.90
2023-03-29T21:43:27.140Z,99.90
2023-03-29T21:45:53.966Z,99.90
2023-03-29T21:48:21.013Z,99.90
2023-03-29T21:50:51.167Z,99.90
2023-03-29T21:53:18.472Z,99.90
2023-03-29T21:55:47.844Z,99.90
2023-03-29T21:58:14.844Z,99.90
2023-03-29T22:00:41.773Z,99.90
2023-03-29T22:03:08.759Z,99.90
2023-03-29T22:05:35.920Z,99.90
2023-03-29T22:08:04.153Z,99.90
2023-03-29T22:10:32.932Z,99.90
2023-03-29T22:13:00.731Z,99.90
2023-03-29T22:15:35.491Z,99.90
2023-03-29T22:18:05.232Z,99.90
2023-03-29T22:20:35.609Z,99.90
2023-03-29T22:23:03.318Z,99.90
2023-03-29T22:25:30.283Z,99.90
2023-03-29T22:27:57.241Z,99.90
2023-03-29T22:30:24.085Z,99.90
2023-03-29T22:32:51.154Z,99.90
2023-03-29T22:35:18.032Z,99.80
2023-03-29T22:37:44.854Z,99.50
2023-03-29T22:40:13.146Z,99.40
2023-03-29T22:42:40.211Z,99.20
2023-03-29T22:45:07.713Z,99.10
2023-03-29T22:47:35.612Z,98.90
2023-03-29T22:50:02.576Z,98.80
2023-03-29T22:52:29.411Z,98.80
2023-03-29T22:54:56.392Z,98.60
2023-03-29T22:57:23.276Z,98.40
2023-03-29T22:59:51.875Z,98.10
2023-03-29T23:02:18.686Z,98.00
2023-03-29T23:04:45.774Z,97.80
2023-03-29T23:07:12.698Z,97.60
2023-03-29T23:09:39.781Z,97.60
2023-03-29T23:12:06.879Z,97.50
2023-03-29T23:14:33.941Z,97.50
2023-03-29T23:17:00.781Z,97.40
2023-03-29T23:19:27.517Z,97.20
2023-03-29T23:21:55.149Z,97.00
2023-03-29T23:24:22.790Z,96.60
2023-03-29T23:26:49.532Z,96.30
2023-03-29T23:29:16.329Z,96.10
2023-03-29T23:31:44.410Z,95.90
2023-03-29T23:34:14.554Z,95.60
2023-03-29T23:36:41.369Z,95.50
2023-03-29T23:39:08.180Z,95.20
2023-03-29T23:41:35.060Z,95.10
2023-03-29T23:44:03.792Z,94.90
2023-03-29T23:48:58.151Z,94.30
2023-03-29T23:51:28.045Z,94.20
2023-03-29T23:53:55.963Z,94.00
2023-03-29T23:56:23.160Z,93.70
2023-03-29T23:58:51.029Z,93.30
